createdAt,value
2018-04-11T00:02:10.366Z,7.40
2018-04-11T00:04:39.371Z,7.40
2018-04-11T00:07:07.631Z,7.40
2018-04-11T00:09:35.851Z,7.40
2018-04-11T00:12:04.894Z,7.40
2018-04-11T00:14:33.123Z,7.30
2018-04-11T00:17:01.371Z,7.30
2018-04-11T00:19:29.627Z,7.30
2018-04-11T00:21:58.699Z,7.30
2018-04-11T00:24:26.956Z,7.20
2018-04-11T00:26:55.223Z,7.30
2018-04-11T00:29:24.236Z,7.20
2018-04-11T00:31:53.235Z,7.10
2018-04-11T00:34:22.243Z,7.10
2018-04-11T00:36:56.002Z,7.00
2018-04-11T00:39:24.257Z,7.00
2018-04-11T00:41:52.481Z,7.00
2018-04-11T00:44:20.730Z,7.00
2018-04-11T00:46:48.982Z,7.00
2018-04-11T00:49:17.235Z,7.00
2018-04-11T00:51:45.495Z,7.00
2018-04-11T00:54:13.753Z,7.00
2018-04-11T00:56:42.081Z,7.00
2018-04-11T00:59:10.318Z,6.90
2018-04-11T01:01:38.567Z,6.90
2018-04-11T01:04:06.839Z,6.90
2018-04-11T01:06:35.066Z,6.90
2018-04-11T01:09:03.312Z,6.90
2018-04-11T01:11:32.407Z,6.90
2018-04-11T01:14:01.421Z,6.80
2018-04-11T01:19:00.058Z,6.80
2018-04-11T01:21:28.290Z,6.80
2018-04-11T01:23:56.555Z,6.80
2018-04-11T01:26:24.798Z,6.80
2018-04-11T01:28:53.930Z,6.80
2018-04-11T01:31:22.187Z,6.70
2018-04-11T01:33:50.459Z,6.80
2018-04-11T01:36:18.694Z,6.80
2018-04-11T01:41:16.532Z,6.80
2018-04-11T01:43:44.780Z,6.90
2018-04-11T01:46:13.815Z,6.90
2018-04-11T01:48:43.039Z,6.90
2018-04-11T01:51:11.283Z,6.90
2018-04-11T01:53:40.280Z,6.90
2018-04-11T01:56:08.558Z,6.90
2018-04-11T01:58:36.799Z,6.90
2018-04-11T02:03:34.729Z,6.90
2018-04-11T02:06:03.752Z,7.00
2018-04-11T02:08:31.997Z,6.80
2018-04-11T02:11:00.227Z,6.90
2018-04-11T02:13:28.451Z,6.90
2018-04-11T02:15:57.473Z,6.80
2018-04-11T02:18:25.733Z,6.80
2018-04-11T02:23:23.542Z,6.70
2018-04-11T02:25:52.588Z,6.70
2018-04-11T02:28:20.832Z,6.60
2018-04-11T02:30:49.091Z,6.60
2018-04-11T02:33:17.328Z,6.60
2018-04-11T02:35:46.363Z,6.50
2018-04-11T02:38:14.636Z,6.40
2018-04-11T02:40:42.917Z,6.40
2018-04-11T02:43:11.915Z,6.30
2018-04-11T02:45:40.923Z,6.20
2018-04-11T02:48:10.661Z,6.10
2018-04-11T02:50:38.903Z,6.10
2018-04-11T02:53:07.145Z,6.10
2018-04-11T02:55:35.416Z,6.10
2018-04-11T02:58:04.414Z,6.00
2018-04-11T03:00:33.421Z,6.00
2018-04-11T03:03:02.426Z,6.10
2018-04-11T03:05:31.417Z,6.10
2018-04-11T03:07:59.671Z,6.00
2018-04-11T03:10:27.910Z,6.10
2018-04-11T03:15:25.769Z,6.00
2018-04-11T03:17:54.024Z,6.00
2018-04-11T03:20:22.253Z,6.00
2018-04-11T03:22:50.532Z,6.00
2018-04-11T03:25:18.761Z,5.90
2018-04-11T03:27:47.014Z,5.90
2018-04-11T03:30:15.275Z,5.90
2018-04-11T03:32:43.678Z,5.80
2018-04-11T03:35:11.955Z,5.80
2018-04-11T03:37:40.199Z,5.70
2018-04-11T03:40:08.430Z,5.70
2018-04-11T03:42:36.670Z,5.60
2018-04-11T03:45:04.906Z,5.50
2018-04-11T03:50:02.779Z,5.40
2018-04-11T03:52:31.043Z,5.30
2018-04-11T03:54:59.268Z,5.30
2018-04-11T03:57:28.323Z,5.30
2018-04-11T03:59:56.550Z,5.20
2018-04-11T04:02:24.878Z,5.30
2018-04-11T04:04:53.878Z,5.20
2018-04-11T04:07:22.878Z,5.20
2018-04-11T04:09:51.876Z,5.20
2018-04-11T04:12:20.889Z,5.20
2018-04-11T04:15:07.742Z,5.20
2018-04-11T04:17:53.742Z,5.10
2018-04-11T04:20:42.119Z,5.10
2018-04-11T04:23:10.384Z,5.10
2018-04-11T04:25:39.387Z,5.00
2018-04-11T04:28:07.645Z,5.00
2018-04-11T04:30:35.874Z,5.00
2018-04-11T04:33:04.136Z,5.00
2018-04-11T04:35:33.118Z,4.90
2018-04-11T04:38:01.393Z,4.90
2018-04-11T04:40:29.635Z,4.90
2018-04-11T04:42:57.898Z,4.90
2018-04-11T04:45:26.985Z,4.90
2018-04-11T04:47:55.227Z,4.90
2018-04-11T04:50:23.458Z,4.90
2018-04-11T04:52:51.714Z,4.90
2018-04-11T04:55:19.983Z,4.90
2018-04-11T04:57:49.722Z,4.90
2018-04-11T05:00:18.013Z,4.90
2018-04-11T05:02:46.254Z,5.00
2018-04-11T05:05:14.500Z,5.00
2018-04-11T05:07:42.785Z,5.10
2018-04-11T05:10:11.763Z,5.10
2018-04-11T05:12:40.749Z,5.20
2018-04-11T05:15:09.774Z,5.20
2018-04-11T05:17:38.791Z,5.30
2018-04-11T05:20:07.047Z,5.30
2018-04-11T05:22:35.277Z,5.30
2018-04-11T05:25:03.547Z,5.40
2018-04-11T05:27:31.782Z,5.50
2018-04-11T05:30:00.037Z,5.60
2018-04-11T05:32:28.268Z,5.70
2018-04-11T05:34:56.517Z,5.80
2018-04-11T05:37:24.753Z,5.80
2018-04-11T05:39:53.007Z,6.00
2018-04-11T05:42:21.244Z,6.00
2018-04-11T05:44:50.271Z,6.20
2018-04-11T05:47:20.006Z,6.30
2018-04-11T05:49:48.250Z,6.20
2018-04-11T05:52:16.499Z,6.50
2018-04-11T05:54:44.755Z,6.60
2018-04-11T05:57:13.778Z,6.80
2018-04-11T05:59:42.072Z,6.80
2018-04-11T06:02:10.304Z,6.90
2018-04-11T06:04:38.562Z,7.10
2018-04-11T06:07:06.781Z,7.20
2018-04-11T06:09:35.039Z,7.30
2018-04-11T06:12:03.267Z,7.50
2018-04-11T06:14:31.493Z,7.70
2018-04-11T06:16:59.825Z,7.80
2018-04-11T06:19:29.014Z,8.10
2018-04-11T06:21:57.279Z,8.00
2018-04-11T06:24:26.291Z,8.40
2018-04-11T06:26:54.580Z,8.40
2018-04-11T06:29:22.828Z,8.60
2018-04-11T06:34:20.623Z,8.90
2018-04-11T06:36:48.884Z,9.10
2018-04-11T06:39:17.116Z,9.30
2018-04-11T06:41:45.453Z,9.40
2018-04-11T06:44:13.694Z,9.60
2018-04-11T06:46:41.956Z,9.80
2018-04-11T06:49:10.198Z,10.00
2018-04-11T06:51:39.589Z,10.10
2018-04-11T06:54:07.832Z,10.10
2018-04-11T06:56:36.092Z,10.30
2018-04-11T06:59:04.334Z,10.40
2018-04-11T07:01:32.623Z,10.50
2018-04-11T07:04:00.879Z,10.50
2018-04-11T07:06:29.147Z,10.60
2018-04-11T07:08:57.400Z,10.70
2018-04-11T07:11:25.654Z,10.80
2018-04-11T07:13:53.896Z,10.90
2018-04-11T07:16:22.951Z,11.20
2018-04-11T07:18:51.199Z,11.10
2018-04-11T07:21:20.225Z,11.30
2018-04-11T07:23:48.463Z,11.20
2018-04-11T07:26:16.738Z,11.40
2018-04-11T07:28:45.019Z,11.40
2018-04-11T07:31:13.322Z,11.40
2018-04-11T07:33:41.566Z,11.50
2018-04-11T07:36:09.843Z,11.50
2018-04-11T07:38:39.594Z,11.50
2018-04-11T07:41:07.875Z,11.50
2018-04-11T07:43:36.129Z,11.60
2018-04-11T07:46:04.449Z,11.70
2018-04-11T07:48:32.669Z,11.80
2018-04-11T07:51:00.909Z,12.00
2018-04-11T07:53:30.008Z,12.30
2018-04-11T07:55:58.259Z,12.30
2018-04-11T07:58:26.512Z,12.40
2018-04-11T08:00:54.755Z,12.50
2018-04-11T08:03:23.056Z,12.50
2018-04-11T08:05:51.346Z,12.50
2018-04-11T08:08:19.604Z,12.60
2018-04-11T08:10:47.849Z,12.70
2018-04-11T08:13:16.131Z,12.80
2018-04-11T08:15:45.170Z,13.00
2018-04-11T08:18:13.445Z,12.90
2018-04-11T08:20:41.691Z,13.00
2018-04-11T08:23:09.981Z,12.90
2018-04-11T08:25:38.323Z,12.80
2018-04-11T08:28:06.606Z,12.90
2018-04-11T08:30:34.864Z,13.00
2018-04-11T08:33:03.923Z,13.20
2018-04-11T08:35:32.181Z,13.10
2018-04-11T08:38:00.461Z,13.10
2018-04-11T08:40:29.454Z,13.30
2018-04-11T08:42:58.471Z,13.40
2018-04-11T08:45:27.479Z,13.50
2018-04-11T08:47:56.482Z,13.70
2018-04-11T08:50:25.482Z,13.80
2018-04-11T08:52:54.519Z,13.90
2018-04-11T08:55:22.809Z,13.80
2018-04-11T08:57:51.047Z,14.00
2018-04-11T09:00:19.323Z,14.10
2018-04-11T09:02:47.583Z,14.20
2018-04-11T09:05:15.849Z,14.30
2018-04-11T09:07:44.116Z,14.30
2018-04-11T09:10:12.387Z,14.30
2018-04-11T09:12:40.643Z,14.20
2018-04-11T09:15:08.898Z,14.10
2018-04-11T09:17:37.155Z,14.10
2018-04-11T09:20:05.400Z,14.20
2018-04-11T09:22:33.651Z,14.20
2018-04-11T09:25:04.195Z,14.20
2018-04-11T09:27:34.851Z,14.20
2018-04-11T09:30:03.370Z,14.20
2018-04-11T09:32:32.811Z,14.40
2018-04-11T09:35:03.234Z,14.60
2018-04-11T09:37:31.474Z,14.50
2018-04-11T09:40:00.493Z,14.60
2018-04-11T09:42:29.494Z,14.70
2018-04-11T09:44:59.240Z,15.00
2018-04-11T09:47:29.174Z,14.90
2018-04-11T09:49:58.132Z,15.00
2018-04-11T09:52:27.257Z,15.00
2018-04-11T09:54:56.474Z,15.30
2018-04-11T09:57:27.125Z,15.30
2018-04-11T09:59:57.739Z,15.30
2018-04-11T10:02:27.504Z,15.30
2018-04-11T10:04:55.753Z,15.40
2018-04-11T10:07:24.785Z,15.40
2018-04-11T10:09:53.023Z,15.40
2018-04-11T10:12:21.272Z,15.40
2018-04-11T10:14:50.323Z,15.30
2018-04-11T10:17:18.566Z,15.20
2018-04-11T10:19:47.582Z,15.40
2018-04-11T10:22:15.830Z,15.30
2018-04-11T10:24:44.149Z,15.40
2018-04-11T10:27:13.154Z,15.60
2018-04-11T10:29:41.727Z,15.60
2018-04-11T10:32:09.968Z,15.60
2018-04-11T10:34:38.261Z,15.70
2018-04-11T10:37:06.511Z,15.50
2018-04-11T10:39:35.537Z,15.80
2018-04-11T10:42:03.779Z,15.70
2018-04-11T10:44:32.066Z,15.90
2018-04-11T10:47:00.299Z,16.00
2018-04-11T10:49:28.542Z,16.00
2018-04-11T10:51:56.803Z,16.10
2018-04-11T10:54:25.047Z,16.20
2018-04-11T10:56:54.092Z,16.10
2018-04-11T10:59:23.815Z,16.10
2018-04-11T11:01:52.074Z,16.10
2018-04-11T11:04:21.059Z,16.20
2018-04-11T11:06:50.099Z,16.20
2018-04-11T11:09:18.346Z,16.10
2018-04-11T11:11:46.623Z,16.10
2018-04-11T11:14:15.468Z,16.10
2018-04-11T11:16:43.758Z,16.20
2018-04-11T11:19:12.965Z,16.30
2018-04-11T11:21:41.332Z,16.30
2018-04-11T11:24:09.593Z,16.30
2018-04-11T11:26:37.850Z,16.40
2018-04-11T11:29:06.115Z,16.60
2018-04-11T11:31:35.203Z,16.60
2018-04-11T11:34:03.459Z,16.50
2018-04-11T11:36:31.716Z,16.60
2018-04-11T11:38:59.970Z,16.60
2018-04-11T11:41:28.231Z,16.60
2018-04-11T11:43:57.240Z,16.70
2018-04-11T11:46:25.491Z,16.70
2018-04-11T11:48:53.735Z,16.80
2018-04-11T11:51:22.020Z,16.80
2018-04-11T11:53:50.320Z,16.80
2018-04-11T11:56:18.583Z,16.80
2018-04-11T11:58:46.836Z,16.90
2018-04-11T12:01:15.115Z,17.10
2018-04-11T12:03:43.403Z,17.10
2018-04-11T12:06:12.421Z,17.00
2018-04-11T12:08:40.666Z,17.00
2018-04-11T12:11:08.975Z,17.00
2018-04-11T12:13:38.003Z,16.90
2018-04-11T12:16:06.236Z,16.80
2018-04-11T12:18:34.487Z,17.00
2018-04-11T12:21:02.736Z,17.10
2018-04-11T12:23:31.001Z,17.10
2018-04-11T12:25:59.243Z,17.10
2018-04-11T12:28:27.502Z,17.10
2018-04-11T12:30:55.761Z,17.30
2018-04-11T12:33:24.011Z,17.40
2018-04-11T12:35:52.335Z,17.40
2018-04-11T12:38:20.591Z,17.50
2018-04-11T12:40:48.840Z,17.60
2018-04-11T12:43:17.118Z,17.70
2018-04-11T12:45:45.393Z,17.80
2018-04-11T12:48:14.493Z,17.90
2018-04-11T12:50:42.769Z,17.90
2018-04-11T12:53:11.050Z,17.80
2018-04-11T12:55:39.281Z,17.90
2018-04-11T12:58:07.598Z,18.00
2018-04-11T13:00:35.818Z,18.00
2018-04-11T13:03:04.083Z,17.90
2018-04-11T13:05:33.083Z,17.90
2018-04-11T13:08:02.125Z,18.00
2018-04-11T13:10:30.369Z,17.90
2018-04-11T13:12:58.631Z,18.00
2018-04-11T13:15:26.880Z,18.30
2018-04-11T13:17:55.139Z,18.40
2018-04-11T13:20:24.147Z,18.80
2018-04-11T13:22:53.198Z,18.80
2018-04-11T13:25:21.435Z,18.80
2018-04-11T13:27:49.689Z,18.80
2018-04-11T13:30:17.943Z,18.70
2018-04-11T13:32:46.239Z,18.80
2018-04-11T13:35:15.264Z,18.80
2018-04-11T13:37:44.364Z,18.70
2018-04-11T13:40:12.734Z,18.80
2018-04-11T13:42:42.575Z,19.10
2018-04-11T13:45:10.823Z,19.00
2018-04-11T13:47:40.814Z,19.10
2018-04-11T13:50:09.051Z,19.10
2018-04-11T13:52:38.072Z,19.10
2018-04-11T13:55:06.327Z,19.00
2018-04-11T13:57:34.587Z,18.90
2018-04-11T14:00:02.887Z,18.90
2018-04-11T14:02:31.184Z,18.90
2018-04-11T14:04:59.397Z,18.90
2018-04-11T14:07:27.637Z,18.90
2018-04-11T14:09:55.916Z,18.80
2018-04-11T14:12:24.200Z,18.80
2018-04-11T14:14:52.456Z,18.60
2018-04-11T14:17:22.208Z,18.00
2018-04-11T14:19:50.465Z,18.10
2018-04-11T14:22:18.712Z,18.00
2018-04-11T14:24:46.978Z,18.20
2018-04-11T14:27:16.007Z,18.90
2018-04-11T14:29:45.220Z,18.80
2018-04-11T14:32:13.488Z,19.00
2018-04-11T14:34:42.040Z,19.10
2018-04-11T14:37:11.039Z,19.40
2018-04-11T14:39:40.091Z,19.40
2018-04-11T14:42:08.351Z,19.30
2018-04-11T14:44:37.380Z,19.20
2018-04-11T14:47:05.671Z,19.20
2018-04-11T14:49:34.686Z,18.90
2018-04-11T14:52:02.939Z,18.80
2018-04-11T14:54:31.954Z,18.70
2018-04-11T14:57:00.963Z,18.70
2018-04-11T14:59:30.005Z,18.50
2018-04-11T15:01:58.241Z,18.40
2018-04-11T15:04:27.269Z,18.30
2018-04-11T15:06:55.519Z,18.30
2018-04-11T15:09:23.779Z,18.30
2018-04-11T15:11:52.031Z,18.30
2018-04-11T15:14:21.080Z,18.50
2018-04-11T15:16:49.342Z,18.50
2018-04-11T15:19:17.592Z,18.70
2018-04-11T15:21:45.882Z,18.80
2018-04-11T15:24:14.907Z,18.90
2018-04-11T15:26:43.935Z,18.90
2018-04-11T15:29:12.231Z,18.90
2018-04-11T15:31:40.522Z,18.80
2018-04-11T15:34:08.776Z,18.60
2018-04-11T15:36:37.059Z,18.40
2018-04-11T15:39:05.489Z,18.20
2018-04-11T15:41:33.753Z,18.00
2018-04-11T15:44:02.758Z,18.00
2018-04-11T15:46:37.099Z,18.00
2018-04-11T15:49:05.352Z,17.90
2018-04-11T15:51:33.613Z,17.90
2018-04-11T15:54:01.871Z,17.90
2018-04-11T15:56:31.259Z,17.90
2018-04-11T15:58:59.545Z,17.80
2018-04-11T16:01:27.811Z,17.90
2018-04-11T16:03:56.051Z,17.90
2018-04-11T16:06:24.312Z,17.80
2018-04-11T16:08:52.553Z,17.80
2018-04-11T16:11:20.829Z,17.80
2018-04-11T16:13:49.834Z,17.70
2018-04-11T16:16:18.890Z,17.70
2018-04-11T16:18:47.127Z,17.70
2018-04-11T16:21:15.444Z,17.70
2018-04-11T16:23:43.739Z,17.60
2018-04-11T16:26:12.019Z,17.50
2018-04-11T16:28:40.305Z,17.40
2018-04-11T16:31:08.570Z,17.40
2018-04-11T16:33:36.824Z,17.30
2018-04-11T16:36:05.082Z,17.30
2018-04-11T16:38:33.356Z,17.30
2018-04-11T16:41:01.598Z,17.30
2018-04-11T16:43:30.628Z,17.40
2018-04-11T16:45:59.519Z,17.40
2018-04-11T16:48:28.543Z,17.50
2018-04-11T16:50:56.812Z,17.40
2018-04-11T16:53:25.868Z,17.40
2018-04-11T16:55:55.254Z,17.30
2018-04-11T16:58:23.552Z,17.30
2018-04-11T17:00:51.817Z,17.40
2018-04-11T17:03:20.869Z,17.40
2018-04-11T17:05:49.135Z,17.30
2018-04-11T17:08:18.150Z,17.30
2018-04-11T17:10:46.400Z,17.30
2018-04-11T17:13:15.464Z,17.20
2018-04-11T17:15:44.507Z,17.20
2018-04-11T17:18:12.786Z,17.10
2018-04-11T17:20:58.735Z,17.20
2018-04-11T17:23:44.645Z,17.30
2018-04-11T17:29:44.066Z,17.30
2018-04-11T17:32:12.330Z,17.30
2018-04-11T17:34:40.586Z,17.10
2018-04-11T17:37:08.856Z,17.00
2018-04-11T17:39:37.138Z,16.90
2018-04-11T17:42:06.150Z,16.70
2018-04-11T17:44:35.184Z,16.60
2018-04-11T17:47:03.428Z,16.60
2018-04-11T17:49:32.451Z,16.40
2018-04-11T17:52:00.699Z,16.40
2018-04-11T17:54:28.967Z,16.30
2018-04-11T17:56:57.347Z,16.20
2018-04-11T17:59:25.609Z,16.10
2018-04-11T18:01:53.854Z,16.00
2018-04-11T18:04:22.112Z,15.90
2018-04-11T18:06:51.118Z,15.80
2018-04-11T18:09:19.462Z,15.80
2018-04-11T18:11:49.212Z,15.70
2018-04-11T18:14:17.481Z,15.60
2018-04-11T18:16:46.533Z,15.60
2018-04-11T18:19:14.804Z,15.50
2018-04-11T18:21:43.059Z,15.50
2018-04-11T18:24:11.315Z,15.40
2018-04-11T18:26:39.560Z,15.20
2018-04-11T18:29:07.833Z,15.10
2018-04-11T18:31:36.063Z,15.00
2018-04-11T18:34:04.327Z,15.10
2018-04-11T18:36:32.557Z,15.10
2018-04-11T18:39:00.806Z,15.00
2018-04-11T18:41:29.850Z,15.00
2018-04-11T18:43:58.168Z,14.90
2018-04-11T18:46:26.417Z,14.90
2018-04-11T18:48:54.680Z,14.90
2018-04-11T18:51:22.926Z,14.80
2018-04-11T18:53:51.207Z,14.70
2018-04-11T18:56:20.236Z,14.50
2018-04-11T18:58:49.294Z,14.50
2018-04-11T19:01:17.540Z,14.40
2018-04-11T19:03:46.635Z,14.30
2018-04-11T19:06:14.885Z,14.20
2018-04-11T19:08:43.149Z,14.20
2018-04-11T19:11:11.408Z,14.10
2018-04-11T19:13:40.478Z,14.00
2018-04-11T19:16:08.735Z,14.00
2018-04-11T19:18:36.975Z,13.90
2018-04-11T19:21:05.245Z,13.90
2018-04-11T19:23:33.486Z,13.90
2018-04-11T19:26:02.512Z,13.80
2018-04-11T19:28:30.760Z,13.80
2018-04-11T19:30:59.075Z,13.80
2018-04-11T19:35:58.442Z,13.80
2018-04-11T19:38:26.741Z,13.80
2018-04-11T19:40:56.135Z,13.80
2018-04-11T19:43:24.387Z,13.80
2018-04-11T19:45:52.662Z,13.70
2018-04-11T19:48:20.903Z,13.70
2018-04-11T19:50:49.171Z,13.70
2018-04-11T19:53:18.215Z,13.50
2018-04-11T19:55:46.541Z,13.50
2018-04-11T19:58:14.749Z,13.50
2018-04-11T20:00:43.045Z,13.40
2018-04-11T20:03:11.304Z,13.30
2018-04-11T20:05:39.581Z,13.30
2018-04-11T20:08:07.849Z,13.20
2018-04-11T20:10:36.117Z,13.30
2018-04-11T20:13:04.366Z,13.30
2018-04-11T20:15:32.612Z,13.20
2018-04-11T20:18:00.858Z,13.30
2018-04-11T20:20:29.882Z,13.20
2018-04-11T20:22:58.904Z,13.20
2018-04-11T20:25:27.896Z,13.20
2018-04-11T20:27:56.930Z,13.10
2018-04-11T20:30:25.180Z,13.10
2018-04-11T20:32:54.211Z,13.10
2018-04-11T20:35:22.464Z,13.00
2018-04-11T20:37:50.778Z,13.00
2018-04-11T20:40:19.793Z,13.00
2018-04-11T20:42:48.088Z,12.90
2018-04-11T20:45:16.305Z,13.00
2018-04-11T20:47:44.588Z,12.90
2018-04-11T20:50:12.858Z,12.90
2018-04-11T20:52:41.088Z,12.90
2018-04-11T20:55:10.246Z,12.80
2018-04-11T20:57:38.511Z,12.80
2018-04-11T21:00:07.511Z,12.80
2018-04-11T21:02:35.776Z,12.70
2018-04-11T21:05:04.058Z,12.70
2018-04-11T21:07:32.306Z,12.60
2018-04-11T21:10:00.567Z,12.60
2018-04-11T21:12:28.809Z,12.60
2018-04-11T21:14:57.064Z,12.60
2018-04-11T21:17:26.092Z,12.40
2018-04-11T21:19:54.335Z,12.40
2018-04-11T21:22:22.602Z,12.40
2018-04-11T21:24:50.855Z,12.30
2018-04-11T21:27:19.120Z,12.30
2018-04-11T21:29:47.391Z,12.30
2018-04-11T21:32:15.671Z,12.20
2018-04-11T21:34:43.927Z,12.20
2018-04-11T21:37:12.188Z,12.10
2018-04-11T21:39:40.429Z,12.10
2018-04-11T21:42:08.728Z,12.00
2018-04-11T21:44:36.982Z,12.00
2018-04-11T21:47:05.244Z,11.90
2018-04-11T21:49:33.512Z,12.00
2018-04-11T21:52:02.535Z,11.90
2018-04-11T21:54:31.567Z,11.90
2018-04-11T21:56:59.820Z,11.80
2018-04-11T21:59:28.838Z,11.80
2018-04-11T22:01:57.102Z,11.80
2018-04-11T22:04:25.355Z,11.80
2018-04-11T22:06:53.594Z,11.70
2018-04-11T22:09:22.607Z,11.80
2018-04-11T22:11:50.857Z,11.70
2018-04-11T22:14:19.107Z,11.70
2018-04-11T22:16:48.123Z,11.60
2018-04-11T22:19:16.387Z,11.60
2018-04-11T22:21:44.645Z,11.60
2018-04-11T22:24:12.924Z,11.60
2018-04-11T22:26:41.178Z,11.60
2018-04-11T22:29:09.428Z,11.60
2018-04-11T22:31:38.452Z,11.40
2018-04-11T22:34:06.699Z,11.40
2018-04-11T22:36:34.935Z,11.30
2018-04-11T22:39:03.229Z,11.30
2018-04-11T22:41:31.473Z,11.20
2018-04-11T22:43:59.721Z,11.20
2018-04-11T22:46:27.963Z,11.20
2018-04-11T22:48:57.011Z,11.10
2018-04-11T22:51:25.272Z,11.10
2018-04-11T22:53:53.511Z,11.10
2018-04-11T22:56:21.806Z,11.10
2018-04-11T22:58:50.824Z,10.80
2018-04-11T23:01:19.094Z,10.90
2018-04-11T23:03:47.326Z,11.00
2018-04-11T23:06:16.363Z,10.90
2018-04-11T23:08:44.632Z,10.90
2018-04-11T23:11:12.914Z,10.90
2018-04-11T23:13:41.154Z,10.90
2018-04-11T23:16:10.226Z,10.80
2018-04-11T23:18:38.467Z,10.80
2018-04-11T23:21:06.739Z,10.80
2018-04-11T23:23:35.739Z,10.70
2018-04-11T23:26:04.001Z,10.70
2018-04-11T23:28:33.018Z,10.60
2018-04-11T23:31:01.297Z,10.60
2018-04-11T23:33:29.535Z,10.60
2018-04-11T23:35:57.783Z,10.60
2018-04-11T23:38:26.039Z,10.60
2018-04-11T23:40:55.047Z,10.40
2018-04-11T23:43:24.064Z,10.40
2018-04-11T23:45:52.322Z,10.30
2018-04-11T23:48:20.552Z,10.30
2018-04-11T23:50:48.810Z,10.20
2018-04-11T23:53:17.860Z,10.20
2018-04-11T23:55:46.098Z,10.20
2018-04-11T23:58:15.119Z,10.30
